Kaler, Kentucky
Current Conditions -  °F | °C
As of 10:15 AM on Tuesday 21 Oct 2014 (Local Time) from KM25 Reporting Station
Clear Clear  
Wind Chill: 63°   Ceiling: Unl
Heat Index: 63°   Visibility: 10mi
Dew Point: 48°   Wind: 8mph
Humidity: 59%   Direction: 330°NNW
Pressure: 30.1"   Gusts: NA
Location:  36.8496°N, 88.6894°W
Report Text: KM25 211515Z AUTO 33007KT 10SM CLR 17/09 A3010 RMK AO2
Loading
Personal Weather Stations






























Interactive Weather Map
Tropical Storm Tracking
New forecast layout! Learn more

10-Day Weather Forecast

Advertisements
Track Severe Weather on mobile